sensor_id;sensor_type;location;lat;lon;timestamp;P1;durP1;ratioP1;P2;durP2;ratioP2
12665;SDS011;58531;59.050;17.416;2023-07-09T00:00:16;4.30;;;3.90;;
12665;SDS011;58531;59.050;17.416;2023-07-09T00:02:46;4.43;;;4.13;;
12665;SDS011;58531;59.050;17.416;2023-07-09T00:05:16;3.90;;;3.60;;
12665;SDS011;58531;59.050;17.416;2023-07-09T00:07:46;4.53;;;4.13;;
12665;SDS011;58531;59.050;17.416;2023-07-09T00:10:17;4.37;;;4.03;;
12665;SDS011;58531;59.050;17.416;2023-07-09T00:12:47;4.30;;;4.00;;
12665;SDS011;58531;59.050;17.416;2023-07-09T00:15:18;9.70;;;4.50;;
12665;SDS011;58531;59.050;17.416;2023-07-09T00:17:47;4.47;;;4.17;;
12665;SDS011;58531;59.050;17.416;2023-07-09T00:20:16;7.57;;;7.17;;
12665;SDS011;58531;59.050;17.416;2023-07-09T00:22:46;8.00;;;7.60;;
12665;SDS011;58531;59.050;17.416;2023-07-09T00:25:18;7.67;;;7.27;;
12665;SDS011;58531;59.050;17.416;2023-07-09T00:27:49;8.20;;;7.90;;
12665;SDS011;58531;59.050;17.416;2023-07-09T00:30:17;9.43;;;8.60;;
12665;SDS011;58531;59.050;17.416;2023-07-09T00:32:47;7.93;;;7.63;;
12665;SDS011;58531;59.050;17.416;2023-07-09T00:35:14;8.07;;;7.67;;
12665;SDS011;58531;59.050;17.416;2023-07-09T00:37:42;7.77;;;7.27;;
12665;SDS011;58531;59.050;17.416;2023-07-09T00:40:15;7.93;;;7.33;;
12665;SDS011;58531;59.050;17.416;2023-07-09T00:42:45;7.33;;;6.93;;
12665;SDS011;58531;59.050;17.416;2023-07-09T00:45:19;7.23;;;6.93;;
12665;SDS011;58531;59.050;17.416;2023-07-09T00:47:54;7.77;;;7.37;;
12665;SDS011;58531;59.050;17.416;2023-07-09T00:50:26;7.13;;;6.73;;
12665;SDS011;58531;59.050;17.416;2023-07-09T00:53:03;6.87;;;6.57;;
12665;SDS011;58531;59.050;17.416;2023-07-09T00:55:40;7.90;;;7.60;;
12665;SDS011;58531;59.050;17.416;2023-07-09T00:58:16;7.27;;;6.87;;
12665;SDS011;58531;59.050;17.416;2023-07-09T01:00:46;7.67;;;7.30;;
12665;SDS011;58531;59.050;17.416;2023-07-09T01:03:20;7.77;;;7.27;;
12665;SDS011;58531;59.050;17.416;2023-07-09T01:05:54;8.40;;;7.90;;
12665;SDS011;58531;59.050;17.416;2023-07-09T01:08:24;7.83;;;7.37;;
12665;SDS011;58531;59.050;17.416;2023-07-09T01:10:54;6.10;;;5.80;;
12665;SDS011;58531;59.050;17.416;2023-07-09T01:13:22;7.10;;;6.80;;
12665;SDS011;58531;59.050;17.416;2023-07-09T01:15:51;6.67;;;6.37;;
12665;SDS011;58531;59.050;17.416;2023-07-09T01:18:19;7.70;;;7.40;;
12665;SDS011;58531;59.050;17.416;2023-07-09T01:20:47;7.57;;;7.17;;
12665;SDS011;58531;59.050;17.416;2023-07-09T01:23:19;7.00;;;6.60;;
12665;SDS011;58531;59.050;17.416;2023-07-09T01:25:50;8.80;;;8.27;;
12665;SDS011;58531;59.050;17.416;2023-07-09T01:28:19;8.93;;;8.43;;
12665;SDS011;58531;59.050;17.416;2023-07-09T01:30:49;8.77;;;8.17;;
12665;SDS011;58531;59.050;17.416;2023-07-09T01:33:19;9.10;;;8.60;;
12665;SDS011;58531;59.050;17.416;2023-07-09T01:35:48;9.70;;;9.10;;
12665;SDS011;58531;59.050;17.416;2023-07-09T01:38:19;8.90;;;8.50;;
12665;SDS011;58531;59.050;17.416;2023-07-09T01:40:55;9.43;;;8.93;;
12665;SDS011;58531;59.050;17.416;2023-07-09T01:43:29;9.03;;;8.53;;
12665;SDS011;58531;59.050;17.416;2023-07-09T01:45:57;9.00;;;8.50;;
12665;SDS011;58531;59.050;17.416;2023-07-09T01:48:25;8.60;;;8.20;;
12665;SDS011;58531;59.050;17.416;2023-07-09T01:51:06;10.37;;;9.60;;
12665;SDS011;58531;59.050;17.416;2023-07-09T01:53:38;9.63;;;9.07;;
12665;SDS011;58531;59.050;17.416;2023-07-09T01:56:14;9.13;;;8.60;;
12665;SDS011;58531;59.050;17.416;2023-07-09T01:58:42;9.40;;;8.73;;
12665;SDS011;58531;59.050;17.416;2023-07-09T02:01:10;8.97;;;8.57;;
12665;SDS011;58531;59.050;17.416;2023-07-09T02:03:40;8.83;;;8.23;;
12665;SDS011;58531;59.050;17.416;2023-07-09T02:06:07;8.30;;;7.80;;
12665;SDS011;58531;59.050;17.416;2023-07-09T02:08:37;8.37;;;7.57;;
12665;SDS011;58531;59.050;17.416;2023-07-09T02:11:05;8.30;;;7.90;;
12665;SDS011;58531;59.050;17.416;2023-07-09T02:13:32;8.13;;;7.73;;
12665;SDS011;58531;59.050;17.416;2023-07-09T02:15:59;8.70;;;8.30;;
12665;SDS011;58531;59.050;17.416;2023-07-09T02:18:28;8.43;;;8.03;;
12665;SDS011;58531;59.050;17.416;2023-07-09T02:20:56;9.57;;;8.83;;
12665;SDS011;58531;59.050;17.416;2023-07-09T02:23:25;9.50;;;9.07;;
12665;SDS011;58531;59.050;17.416;2023-07-09T02:25:56;9.33;;;8.93;;
12665;SDS011;58531;59.050;17.416;2023-07-09T02:28:23;8.53;;;8.10;;
12665;SDS011;58531;59.050;17.416;2023-07-09T02:30:50;8.50;;;7.97;;
12665;SDS011;58531;59.050;17.416;2023-07-09T02:33:20;9.17;;;8.67;;
12665;SDS011;58531;59.050;17.416;2023-07-09T02:35:50;7.77;;;7.33;;
12665;SDS011;58531;59.050;17.416;2023-07-09T02:38:18;8.43;;;7.93;;
12665;SDS011;58531;59.050;17.416;2023-07-09T02:40:45;9.10;;;8.60;;
12665;SDS011;58531;59.050;17.416;2023-07-09T02:43:15;7.97;;;7.47;;
12665;SDS011;58531;59.050;17.416;2023-07-09T02:45:46;7.93;;;7.43;;
12665;SDS011;58531;59.050;17.416;2023-07-09T02:48:13;6.70;;;6.13;;
12665;SDS011;58531;59.050;17.416;2023-07-09T02:50:40;6.70;;;6.30;;
12665;SDS011;58531;59.050;17.416;2023-07-09T02:53:09;8.40;;;8.00;;
12665;SDS011;58531;59.050;17.416;2023-07-09T02:55:36;7.17;;;6.77;;
12665;SDS011;58531;59.050;17.416;2023-07-09T02:58:04;6.97;;;6.57;;
12665;SDS011;58531;59.050;17.416;2023-07-09T03:00:34;7.70;;;7.30;;
12665;SDS011;58531;59.050;17.416;2023-07-09T03:03:02;7.07;;;6.67;;
12665;SDS011;58531;59.050;17.416;2023-07-09T03:05:29;5.17;;;4.87;;
12665;SDS011;58531;59.050;17.416;2023-07-09T03:07:57;4.33;;;4.13;;
12665;SDS011;58531;59.050;17.416;2023-07-09T03:10:25;3.33;;;3.13;;
12665;SDS011;58531;59.050;17.416;2023-07-09T03:12:54;3.33;;;2.07;;
12665;SDS011;58531;59.050;17.416;2023-07-09T03:15:25;1.90;;;1.80;;
12665;SDS011;58531;59.050;17.416;2023-07-09T03:17:58;3.83;;;3.63;;
12665;SDS011;58531;59.050;17.416;2023-07-09T03:20:26;3.13;;;2.83;;
12665;SDS011;58531;59.050;17.416;2023-07-09T03:22:54;2.00;;;1.90;;
12665;SDS011;58531;59.050;17.416;2023-07-09T03:25:22;3.23;;;2.23;;
12665;SDS011;58531;59.050;17.416;2023-07-09T03:27:50;2.10;;;2.00;;
12665;SDS011;58531;59.050;17.416;2023-07-09T03:30:17;2.30;;;2.20;;
12665;SDS011;58531;59.050;17.416;2023-07-09T03:32:45;2.60;;;2.43;;
12665;SDS011;58531;59.050;17.416;2023-07-09T03:35:15;2.47;;;2.37;;
12665;SDS011;58531;59.050;17.416;2023-07-09T03:37:43;3.00;;;2.80;;
12665;SDS011;58531;59.050;17.416;2023-07-09T03:40:11;2.27;;;2.17;;
12665;SDS011;58531;59.050;17.416;2023-07-09T03:42:48;2.40;;;2.20;;
12665;SDS011;58531;59.050;17.416;2023-07-09T03:45:16;2.90;;;2.80;;
12665;SDS011;58531;59.050;17.416;2023-07-09T03:47:43;2.77;;;2.67;;
12665;SDS011;58531;59.050;17.416;2023-07-09T03:50:14;2.83;;;2.63;;
12665;SDS011;58531;59.050;17.416;2023-07-09T03:52:42;2.60;;;2.40;;
12665;SDS011;58531;59.050;17.416;2023-07-09T03:55:09;3.20;;;2.67;;
12665;SDS011;58531;59.050;17.416;2023-07-09T03:57:39;3.20;;;3.00;;
12665;SDS011;58531;59.050;17.416;2023-07-09T04:00:07;6.13;;;5.83;;
12665;SDS011;58531;59.050;17.416;2023-07-09T04:02:36;2.33;;;2.23;;
12665;SDS011;58531;59.050;17.416;2023-07-09T04:05:04;2.93;;;2.83;;
12665;SDS011;58531;59.050;17.416;2023-07-09T04:07:33;2.57;;;2.47;;
12665;SDS011;58531;59.050;17.416;2023-07-09T04:10:00;2.20;;;2.00;;
12665;SDS011;58531;59.050;17.416;2023-07-09T04:12:27;2.97;;;2.67;;
12665;SDS011;58531;59.050;17.416;2023-07-09T04:14:55;3.00;;;2.80;;
12665;SDS011;58531;59.050;17.416;2023-07-09T04:17:23;3.20;;;3.00;;
12665;SDS011;58531;59.050;17.416;2023-07-09T04:19:51;2.50;;;2.40;;
12665;SDS011;58531;59.050;17.416;2023-07-09T04:22:19;2.73;;;2.63;;
12665;SDS011;58531;59.050;17.416;2023-07-09T04:24:48;2.70;;;2.60;;
12665;SDS011;58531;59.050;17.416;2023-07-09T04:27:17;2.87;;;2.67;;
12665;SDS011;58531;59.050;17.416;2023-07-09T04:29:44;2.73;;;2.60;;
12665;SDS011;58531;59.050;17.416;2023-07-09T04:32:13;3.83;;;3.63;;
12665;SDS011;58531;59.050;17.416;2023-07-09T04:34:41;4.97;;;4.67;;
12665;SDS011;58531;59.050;17.416;2023-07-09T04:37:09;4.70;;;4.50;;
12665;SDS011;58531;59.050;17.416;2023-07-09T04:39:38;4.10;;;3.90;;
12665;SDS011;58531;59.050;17.416;2023-07-09T04:42:09;5.40;;;5.20;;
12665;SDS011;58531;59.050;17.416;2023-07-09T04:44:38;4.63;;;4.43;;
12665;SDS011;58531;59.050;17.416;2023-07-09T04:47:06;5.23;;;4.93;;
12665;SDS011;58531;59.050;17.416;2023-07-09T04:49:35;5.00;;;4.70;;
12665;SDS011;58531;59.050;17.416;2023-07-09T04:52:03;5.33;;;5.13;;
12665;SDS011;58531;59.050;17.416;2023-07-09T04:54:31;3.60;;;3.40;;
12665;SDS011;58531;59.050;17.416;2023-07-09T04:56:59;3.40;;;3.30;;
12665;SDS011;58531;59.050;17.416;2023-07-09T04:59:31;3.07;;;2.90;;
12665;SDS011;58531;59.050;17.416;2023-07-09T05:01:59;3.30;;;3.10;;
12665;SDS011;58531;59.050;17.416;2023-07-09T05:04:27;2.97;;;2.83;;
12665;SDS011;58531;59.050;17.416;2023-07-09T05:06:53;3.22;;;3.03;;
12665;SDS011;58531;59.050;17.416;2023-07-09T05:09:20;2.70;;;2.60;;
12665;SDS011;58531;59.050;17.416;2023-07-09T05:11:49;2.88;;;2.78;;
12665;SDS011;58531;59.050;17.416;2023-07-09T05:14:16;3.45;;;3.20;;
12665;SDS011;58531;59.050;17.416;2023-07-09T05:16:44;3.30;;;3.00;;
12665;SDS011;58531;59.050;17.416;2023-07-09T05:19:12;4.60;;;4.30;;
12665;SDS011;58531;59.050;17.416;2023-07-09T05:21:39;3.95;;;3.65;;
12665;SDS011;58531;59.050;17.416;2023-07-09T05:24:06;3.10;;;3.00;;
12665;SDS011;58531;59.050;17.416;2023-07-09T05:26:33;3.33;;;3.13;;
12665;SDS011;58531;59.050;17.416;2023-07-09T05:29:02;3.33;;;3.22;;
12665;SDS011;58531;59.050;17.416;2023-07-09T05:31:30;3.72;;;3.53;;
12665;SDS011;58531;59.050;17.416;2023-07-09T05:33:59;3.58;;;3.38;;
12665;SDS011;58531;59.050;17.416;2023-07-09T05:36:27;3.30;;;3.10;;
12665;SDS011;58531;59.050;17.416;2023-07-09T05:38:54;4.05;;;3.85;;
12665;SDS011;58531;59.050;17.416;2023-07-09T05:41:21;4.10;;;3.90;;
12665;SDS011;58531;59.050;17.416;2023-07-09T05:43:49;4.18;;;3.90;;
12665;SDS011;58531;59.050;17.416;2023-07-09T05:46:16;3.70;;;3.50;;
12665;SDS011;58531;59.050;17.416;2023-07-09T05:48:44;4.30;;;4.00;;
12665;SDS011;58531;59.050;17.416;2023-07-09T05:51:13;4.22;;;4.03;;
12665;SDS011;58531;59.050;17.416;2023-07-09T05:53:40;4.20;;;3.97;;
12665;SDS011;58531;59.050;17.416;2023-07-09T05:56:08;4.28;;;4.03;;
12665;SDS011;58531;59.050;17.416;2023-07-09T05:58:35;3.90;;;3.70;;
12665;SDS011;58531;59.050;17.416;2023-07-09T06:01:03;2.72;;;2.63;;
12665;SDS011;58531;59.050;17.416;2023-07-09T06:03:30;3.60;;;3.40;;
12665;SDS011;58531;59.050;17.416;2023-07-09T06:05:57;3.13;;;3.03;;
12665;SDS011;58531;59.050;17.416;2023-07-09T06:08:26;3.00;;;2.90;;
12665;SDS011;58531;59.050;17.416;2023-07-09T06:10:53;2.97;;;2.78;;
12665;SDS011;58531;59.050;17.416;2023-07-09T06:13:21;3.17;;;2.90;;
12665;SDS011;58531;59.050;17.416;2023-07-09T06:15:49;2.78;;;2.67;;
12665;SDS011;58531;59.050;17.416;2023-07-09T06:18:18;3.38;;;3.15;;
12665;SDS011;58531;59.050;17.416;2023-07-09T06:20:48;3.00;;;2.78;;
12665;SDS011;58531;59.050;17.416;2023-07-09T06:23:16;3.08;;;2.88;;
12665;SDS011;58531;59.050;17.416;2023-07-09T06:25:45;3.30;;;3.00;;
12665;SDS011;58531;59.050;17.416;2023-07-09T06:28:14;3.30;;;2.90;;
12665;SDS011;58531;59.050;17.416;2023-07-09T06:30:41;3.08;;;2.88;;
12665;SDS011;58531;59.050;17.416;2023-07-09T06:33:09;3.38;;;3.17;;
12665;SDS011;58531;59.050;17.416;2023-07-09T06:35:37;2.72;;;2.63;;
12665;SDS011;58531;59.050;17.416;2023-07-09T06:38:04;3.10;;;2.90;;
12665;SDS011;58531;59.050;17.416;2023-07-09T06:40:32;3.03;;;2.88;;
12665;SDS011;58531;59.050;17.416;2023-07-09T06:43:02;3.20;;;3.00;;
12665;SDS011;58531;59.050;17.416;2023-07-09T06:45:29;3.10;;;2.90;;
12665;SDS011;58531;59.050;17.416;2023-07-09T06:47:57;3.17;;;3.00;;
12665;SDS011;58531;59.050;17.416;2023-07-09T06:50:24;3.00;;;2.85;;
12665;SDS011;58531;59.050;17.416;2023-07-09T06:52:53;3.28;;;3.08;;
12665;SDS011;58531;59.050;17.416;2023-07-09T06:55:20;3.05;;;2.85;;
12665;SDS011;58531;59.050;17.416;2023-07-09T06:57:47;2.92;;;2.83;;
12665;SDS011;58531;59.050;17.416;2023-07-09T07:00:15;3.53;;;3.33;;
12665;SDS011;58531;59.050;17.416;2023-07-09T07:02:43;2.78;;;2.58;;
12665;SDS011;58531;59.050;17.416;2023-07-09T07:05:09;3.85;;;3.65;;
12665;SDS011;58531;59.050;17.416;2023-07-09T07:07:36;3.20;;;3.10;;
12665;SDS011;58531;59.050;17.416;2023-07-09T07:10:03;2.92;;;2.60;;
12665;SDS011;58531;59.050;17.416;2023-07-09T07:12:40;3.40;;;3.20;;
12665;SDS011;58531;59.050;17.416;2023-07-09T07:15:10;3.17;;;3.00;;
12665;SDS011;58531;59.050;17.416;2023-07-09T07:17:39;3.28;;;2.97;;
12665;SDS011;58531;59.050;17.416;2023-07-09T07:20:08;2.83;;;2.72;;
12665;SDS011;58531;59.050;17.416;2023-07-09T07:22:37;3.58;;;3.00;;
12665;SDS011;58531;59.050;17.416;2023-07-09T07:25:05;2.88;;;2.78;;
12665;SDS011;58531;59.050;17.416;2023-07-09T07:27:34;4.63;;;3.10;;
12665;SDS011;58531;59.050;17.416;2023-07-09T07:30:03;2.97;;;2.80;;
12665;SDS011;58531;59.050;17.416;2023-07-09T07:32:30;3.15;;;2.95;;
12665;SDS011;58531;59.050;17.416;2023-07-09T07:34:59;3.00;;;2.90;;
12665;SDS011;58531;59.050;17.416;2023-07-09T07:37:26;2.70;;;2.60;;
12665;SDS011;58531;59.050;17.416;2023-07-09T07:39:53;2.67;;;2.58;;
12665;SDS011;58531;59.050;17.416;2023-07-09T07:42:20;2.92;;;2.83;;
12665;SDS011;58531;59.050;17.416;2023-07-09T07:44:47;2.50;;;2.40;;
12665;SDS011;58531;59.050;17.416;2023-07-09T07:47:13;3.00;;;2.80;;
12665;SDS011;58531;59.050;17.416;2023-07-09T07:49:40;2.75;;;2.65;;
12665;SDS011;58531;59.050;17.416;2023-07-09T07:52:09;3.20;;;3.00;;
12665;SDS011;58531;59.050;17.416;2023-07-09T07:54:35;3.20;;;3.00;;
12665;SDS011;58531;59.050;17.416;2023-07-09T07:57:03;3.42;;;3.30;;
12665;SDS011;58531;59.050;17.416;2023-07-09T07:59:30;3.08;;;2.90;;
12665;SDS011;58531;59.050;17.416;2023-07-09T08:02:00;2.60;;;2.50;;
12665;SDS011;58531;59.050;17.416;2023-07-09T08:04:27;3.10;;;2.93;;
12665;SDS011;58531;59.050;17.416;2023-07-09T08:06:53;6.73;;;6.27;;
12665;SDS011;58531;59.050;17.416;2023-07-09T08:09:22;4.20;;;4.00;;
12665;SDS011;58531;59.050;17.416;2023-07-09T08:11:49;4.50;;;4.20;;
12665;SDS011;58531;59.050;17.416;2023-07-09T08:14:16;5.40;;;5.20;;
12665;SDS011;58531;59.050;17.416;2023-07-09T08:16:43;6.03;;;5.63;;
12665;SDS011;58531;59.050;17.416;2023-07-09T08:19:11;6.17;;;5.77;;
12665;SDS011;58531;59.050;17.416;2023-07-09T08:21:37;3.90;;;3.70;;
12665;SDS011;58531;59.050;17.416;2023-07-09T08:24:05;4.50;;;4.20;;
12665;SDS011;58531;59.050;17.416;2023-07-09T08:26:33;4.00;;;3.70;;
12665;SDS011;58531;59.050;17.416;2023-07-09T08:29:03;3.57;;;3.37;;
12665;SDS011;58531;59.050;17.416;2023-07-09T08:31:30;3.30;;;3.20;;
12665;SDS011;58531;59.050;17.416;2023-07-09T08:33:57;4.03;;;3.83;;
12665;SDS011;58531;59.050;17.416;2023-07-09T08:36:24;4.10;;;3.90;;
12665;SDS011;58531;59.050;17.416;2023-07-09T08:38:50;4.97;;;4.77;;
12665;SDS011;58531;59.050;17.416;2023-07-09T08:41:20;4.17;;;3.97;;
12665;SDS011;58531;59.050;17.416;2023-07-09T08:44:02;4.57;;;4.37;;
12665;SDS011;58531;59.050;17.416;2023-07-09T08:46:45;4.83;;;4.63;;
12665;SDS011;58531;59.050;17.416;2023-07-09T08:49:19;4.73;;;4.43;;
12665;SDS011;58531;59.050;17.416;2023-07-09T08:51:50;4.73;;;4.50;;
12665;SDS011;58531;59.050;17.416;2023-07-09T08:54:20;6.00;;;5.70;;
12665;SDS011;58531;59.050;17.416;2023-07-09T08:56:53;4.67;;;4.47;;
12665;SDS011;58531;59.050;17.416;2023-07-09T08:59:24;4.30;;;4.00;;
12665;SDS011;58531;59.050;17.416;2023-07-09T09:01:53;4.57;;;4.27;;
12665;SDS011;58531;59.050;17.416;2023-07-09T09:04:25;4.80;;;4.53;;
12665;SDS011;58531;59.050;17.416;2023-07-09T09:06:57;4.30;;;4.10;;
12665;SDS011;58531;59.050;17.416;2023-07-09T09:09:44;4.47;;;4.27;;
12665;SDS011;58531;59.050;17.416;2023-07-09T09:12:17;4.50;;;4.30;;
12665;SDS011;58531;59.050;17.416;2023-07-09T09:14:51;4.47;;;4.27;;
12665;SDS011;58531;59.050;17.416;2023-07-09T09:17:24;4.57;;;4.37;;
12665;SDS011;58531;59.050;17.416;2023-07-09T09:19:55;4.30;;;4.10;;
12665;SDS011;58531;59.050;17.416;2023-07-09T09:22:25;4.17;;;3.97;;
12665;SDS011;58531;59.050;17.416;2023-07-09T09:24:58;4.43;;;4.23;;
12665;SDS011;58531;59.050;17.416;2023-07-09T09:27:29;4.27;;;4.07;;
12665;SDS011;58531;59.050;17.416;2023-07-09T09:29:58;4.30;;;4.00;;
12665;SDS011;58531;59.050;17.416;2023-07-09T09:32:25;4.50;;;4.20;;
12665;SDS011;58531;59.050;17.416;2023-07-09T09:34:54;4.03;;;3.83;;
12665;SDS011;58531;59.050;17.416;2023-07-09T09:37:24;4.93;;;4.63;;
12665;SDS011;58531;59.050;17.416;2023-07-09T09:39:53;4.87;;;4.57;;
12665;SDS011;58531;59.050;17.416;2023-07-09T09:42:22;4.70;;;4.40;;
12665;SDS011;58531;59.050;17.416;2023-07-09T09:44:53;4.30;;;4.10;;
12665;SDS011;58531;59.050;17.416;2023-07-09T09:47:23;5.30;;;5.10;;
12665;SDS011;58531;59.050;17.416;2023-07-09T09:49:52;4.30;;;4.10;;
12665;SDS011;58531;59.050;17.416;2023-07-09T09:52:20;5.20;;;4.90;;
12665;SDS011;58531;59.050;17.416;2023-07-09T09:54:53;4.47;;;4.27;;
12665;SDS011;58531;59.050;17.416;2023-07-09T09:57:27;4.60;;;4.30;;
12665;SDS011;58531;59.050;17.416;2023-07-09T09:59:55;4.33;;;4.13;;
12665;SDS011;58531;59.050;17.416;2023-07-09T10:02:23;4.87;;;4.67;;
12665;SDS011;58531;59.050;17.416;2023-07-09T10:04:52;4.53;;;4.13;;
12665;SDS011;58531;59.050;17.416;2023-07-09T10:07:21;5.17;;;4.97;;
12665;SDS011;58531;59.050;17.416;2023-07-09T10:09:51;4.03;;;3.83;;
12665;SDS011;58531;59.050;17.416;2023-07-09T10:12:25;4.00;;;3.80;;
12665;SDS011;58531;59.050;17.416;2023-07-09T10:15:07;4.43;;;4.03;;
12665;SDS011;58531;59.050;17.416;2023-07-09T10:17:47;4.33;;;4.13;;
12665;SDS011;58531;59.050;17.416;2023-07-09T10:20:22;4.17;;;3.97;;
12665;SDS011;58531;59.050;17.416;2023-07-09T10:22:54;4.10;;;3.90;;
12665;SDS011;58531;59.050;17.416;2023-07-09T10:25:29;4.40;;;4.20;;
12665;SDS011;58531;59.050;17.416;2023-07-09T10:28:17;4.70;;;4.50;;
12665;SDS011;58531;59.050;17.416;2023-07-09T10:31:12;3.53;;;3.43;;
12665;SDS011;58531;59.050;17.416;2023-07-09T10:33:55;5.03;;;4.83;;
12665;SDS011;58531;59.050;17.416;2023-07-09T10:36:30;4.50;;;4.30;;
12665;SDS011;58531;59.050;17.416;2023-07-09T10:39:08;4.73;;;4.53;;
12665;SDS011;58531;59.050;17.416;2023-07-09T10:41:40;4.80;;;4.60;;
12665;SDS011;58531;59.050;17.416;2023-07-09T10:44:10;5.33;;;4.93;;
12665;SDS011;58531;59.050;17.416;2023-07-09T10:46:42;4.30;;;4.10;;
12665;SDS011;58531;59.050;17.416;2023-07-09T10:49:16;4.40;;;4.20;;
12665;SDS011;58531;59.050;17.416;2023-07-09T10:51:48;4.53;;;4.33;;
12665;SDS011;58531;59.050;17.416;2023-07-09T10:54:21;4.93;;;4.70;;
12665;SDS011;58531;59.050;17.416;2023-07-09T10:56:56;4.40;;;4.20;;
12665;SDS011;58531;59.050;17.416;2023-07-09T10:59:30;4.93;;;4.67;;
12665;SDS011;58531;59.050;17.416;2023-07-09T11:02:04;4.67;;;4.47;;
12665;SDS011;58531;59.050;17.416;2023-07-09T11:04:47;4.50;;;4.30;;
12665;SDS011;58531;59.050;17.416;2023-07-09T11:07:21;5.00;;;4.77;;
12665;SDS011;58531;59.050;17.416;2023-07-09T11:09:53;4.57;;;4.37;;
12665;SDS011;58531;59.050;17.416;2023-07-09T11:12:24;4.13;;;3.93;;
12665;SDS011;58531;59.050;17.416;2023-07-09T11:14:57;4.13;;;3.93;;
12665;SDS011;58531;59.050;17.416;2023-07-09T11:17:28;4.10;;;3.90;;
12665;SDS011;58531;59.050;17.416;2023-07-09T11:20:00;3.83;;;3.63;;
12665;SDS011;58531;59.050;17.416;2023-07-09T11:22:37;3.90;;;3.80;;
12665;SDS011;58531;59.050;17.416;2023-07-09T11:25:06;4.37;;;4.17;;
12665;SDS011;58531;59.050;17.416;2023-07-09T11:27:45;4.83;;;4.57;;
12665;SDS011;58531;59.050;17.416;2023-07-09T11:30:19;4.03;;;3.83;;
12665;SDS011;58531;59.050;17.416;2023-07-09T11:32:52;7.20;;;6.67;;
12665;SDS011;58531;59.050;17.416;2023-07-09T11:35:22;5.10;;;4.80;;
12665;SDS011;58531;59.050;17.416;2023-07-09T11:37:50;17.27;;;15.67;;
12665;SDS011;58531;59.050;17.416;2023-07-09T11:40:20;3.80;;;3.60;;
12665;SDS011;58531;59.050;17.416;2023-07-09T11:42:51;3.67;;;3.47;;
12665;SDS011;58531;59.050;17.416;2023-07-09T11:45:21;3.30;;;3.10;;
12665;SDS011;58531;59.050;17.416;2023-07-09T11:47:53;12.07;;;11.10;;
12665;SDS011;58531;59.050;17.416;2023-07-09T11:50:31;2.70;;;2.60;;
12665;SDS011;58531;59.050;17.416;2023-07-09T11:53:02;4.10;;;3.80;;
12665;SDS011;58531;59.050;17.416;2023-07-09T11:55:36;3.53;;;3.33;;
12665;SDS011;58531;59.050;17.416;2023-07-09T11:58:07;5.37;;;5.07;;
12665;SDS011;58531;59.050;17.416;2023-07-09T12:00:37;3.20;;;3.10;;
12665;SDS011;58531;59.050;17.416;2023-07-09T12:03:09;2.90;;;2.80;;
12665;SDS011;58531;59.050;17.416;2023-07-09T12:05:43;3.20;;;3.03;;
12665;SDS011;58531;59.050;17.416;2023-07-09T12:08:15;3.07;;;2.90;;
12665;SDS011;58531;59.050;17.416;2023-07-09T12:10:43;3.10;;;3.00;;
12665;SDS011;58531;59.050;17.416;2023-07-09T12:13:12;3.40;;;3.20;;
12665;SDS011;58531;59.050;17.416;2023-07-09T12:15:40;4.03;;;3.73;;
12665;SDS011;58531;59.050;17.416;2023-07-09T12:18:10;3.13;;;2.93;;
12665;SDS011;58531;59.050;17.416;2023-07-09T12:20:39;4.27;;;3.90;;
12665;SDS011;58531;59.050;17.416;2023-07-09T12:23:12;4.47;;;4.27;;
12665;SDS011;58531;59.050;17.416;2023-07-09T12:25:47;3.67;;;3.47;;
12665;SDS011;58531;59.050;17.416;2023-07-09T12:28:15;3.40;;;3.20;;
12665;SDS011;58531;59.050;17.416;2023-07-09T12:30:44;3.60;;;3.27;;
12665;SDS011;58531;59.050;17.416;2023-07-09T12:33:12;5.80;;;5.50;;
12665;SDS011;58531;59.050;17.416;2023-07-09T12:35:43;5.90;;;5.60;;
12665;SDS011;58531;59.050;17.416;2023-07-09T12:38:17;6.37;;;5.97;;
12665;SDS011;58531;59.050;17.416;2023-07-09T12:40:46;5.13;;;4.93;;
12665;SDS011;58531;59.050;17.416;2023-07-09T12:43:15;4.83;;;4.63;;
12665;SDS011;58531;59.050;17.416;2023-07-09T12:45:46;3.30;;;3.10;;
12665;SDS011;58531;59.050;17.416;2023-07-09T12:48:13;3.67;;;3.50;;
12665;SDS011;58531;59.050;17.416;2023-07-09T12:50:40;3.80;;;3.60;;
12665;SDS011;58531;59.050;17.416;2023-07-09T12:53:12;4.27;;;4.07;;
12665;SDS011;58531;59.050;17.416;2023-07-09T12:55:44;3.90;;;3.70;;
12665;SDS011;58531;59.050;17.416;2023-07-09T12:58:15;4.17;;;3.97;;
12665;SDS011;58531;59.050;17.416;2023-07-09T13:00:47;3.57;;;3.37;;
12665;SDS011;58531;59.050;17.416;2023-07-09T13:03:17;3.63;;;3.43;;
12665;SDS011;58531;59.050;17.416;2023-07-09T13:05:53;2.83;;;2.63;;
12665;SDS011;58531;59.050;17.416;2023-07-09T13:08:23;2.90;;;2.80;;
12665;SDS011;58531;59.050;17.416;2023-07-09T13:10:52;2.53;;;2.43;;
12665;SDS011;58531;59.050;17.416;2023-07-09T13:13:20;3.17;;;3.00;;
12665;SDS011;58531;59.050;17.416;2023-07-09T13:15:48;2.90;;;2.73;;
12665;SDS011;58531;59.050;17.416;2023-07-09T13:18:22;4.93;;;4.63;;
12665;SDS011;58531;59.050;17.416;2023-07-09T13:20:50;5.37;;;5.17;;
12665;SDS011;58531;59.050;17.416;2023-07-09T13:23:19;6.13;;;5.63;;
12665;SDS011;58531;59.050;17.416;2023-07-09T13:25:49;5.60;;;5.30;;
12665;SDS011;58531;59.050;17.416;2023-07-09T13:28:21;5.00;;;4.80;;
12665;SDS011;58531;59.050;17.416;2023-07-09T13:30:51;5.43;;;5.13;;
12665;SDS011;58531;59.050;17.416;2023-07-09T13:33:22;6.27;;;5.87;;
12665;SDS011;58531;59.050;17.416;2023-07-09T13:35:49;6.07;;;5.77;;
12665;SDS011;58531;59.050;17.416;2023-07-09T13:38:19;6.33;;;6.03;;
12665;SDS011;58531;59.050;17.416;2023-07-09T13:40:47;6.07;;;5.77;;
12665;SDS011;58531;59.050;17.416;2023-07-09T13:43:18;7.37;;;6.97;;
12665;SDS011;58531;59.050;17.416;2023-07-09T13:45:47;6.60;;;6.30;;
12665;SDS011;58531;59.050;17.416;2023-07-09T13:48:16;6.47;;;6.10;;
12665;SDS011;58531;59.050;17.416;2023-07-09T13:50:45;6.43;;;6.13;;
12665;SDS011;58531;59.050;17.416;2023-07-09T13:53:14;7.03;;;6.53;;
12665;SDS011;58531;59.050;17.416;2023-07-09T13:55:42;6.60;;;6.20;;
12665;SDS011;58531;59.050;17.416;2023-07-09T13:58:09;6.80;;;6.50;;
12665;SDS011;58531;59.050;17.416;2023-07-09T14:00:39;6.03;;;5.63;;
12665;SDS011;58531;59.050;17.416;2023-07-09T14:03:08;5.63;;;5.27;;
12665;SDS011;58531;59.050;17.416;2023-07-09T14:05:42;5.03;;;4.73;;
12665;SDS011;58531;59.050;17.416;2023-07-09T14:08:10;6.20;;;5.87;;
12665;SDS011;58531;59.050;17.416;2023-07-09T14:10:37;6.07;;;5.67;;
12665;SDS011;58531;59.050;17.416;2023-07-09T14:13:05;5.50;;;5.20;;
12665;SDS011;58531;59.050;17.416;2023-07-09T14:15:35;5.43;;;5.07;;
12665;SDS011;58531;59.050;17.416;2023-07-09T14:18:04;4.93;;;4.63;;
12665;SDS011;58531;59.050;17.416;2023-07-09T14:20:32;5.00;;;4.77;;
12665;SDS011;58531;59.050;17.416;2023-07-09T14:22:58;4.23;;;4.03;;
12665;SDS011;58531;59.050;17.416;2023-07-09T14:25:25;4.43;;;4.23;;
12665;SDS011;58531;59.050;17.416;2023-07-09T14:27:53;4.80;;;4.60;;
12665;SDS011;58531;59.050;17.416;2023-07-09T14:30:21;4.77;;;4.43;;
12665;SDS011;58531;59.050;17.416;2023-07-09T14:32:50;6.57;;;6.10;;
12665;SDS011;58531;59.050;17.416;2023-07-09T14:35:19;5.20;;;4.93;;
12665;SDS011;58531;59.050;17.416;2023-07-09T14:37:48;4.63;;;4.40;;
12665;SDS011;58531;59.050;17.416;2023-07-09T14:40:16;4.53;;;4.23;;
12665;SDS011;58531;59.050;17.416;2023-07-09T14:42:45;4.80;;;4.60;;
12665;SDS011;58531;59.050;17.416;2023-07-09T14:45:17;4.50;;;4.30;;
12665;SDS011;58531;59.050;17.416;2023-07-09T14:47:47;5.13;;;4.93;;